Time;durP1;ratioP1;P1;durP2;ratioP2;P2;SDS_P1;SDS_P2;PMS_P1;PMS_P2;Temp;Humidity;BMP_temperature;BMP_pressure;BME280_temperature;BME280_humidity;BME280_pressure;Samples;Min_cycle;Max_cycle;Signal;HPM_P1;HPM_P2
2022/06/03 00:00:07;;;;;;;12.38;8.25;;;;;;;-141.50;100.00;63355.56;5069302;28;20049;-81
2022/06/03 00:02:52;;;;;;;8.23;7.38;;;;;;;-141.50;100.00;63355.56;5071543;28;20053;-81
2022/06/03 00:05:28;;;;;;;10.65;8.60;;;;;;;-141.50;100.00;63355.56;5074222;28;20056;-82
2022/06/03 00:08:19;;;;;;;12.57;8.93;;;;;;;-141.50;100.00;63355.56;5073116;28;20572;-82
2022/06/03 00:11:25;;;;;;;12.27;8.75;;;;;;;-141.50;100.00;63355.56;5066805;28;20098;-82
2022/06/03 00:14:13;;;;;;;12.65;9.23;;;;;;;-141.50;100.00;63355.56;5053916;28;20045;-83
2022/06/03 00:17:04;;;;;;;11.95;9.25;;;;;;;-141.50;100.00;63355.56;5095962;28;20052;-83
2022/06/03 00:19:47;;;;;;;12.70;10.82;;;;;;;-141.50;100.00;63355.56;5060119;28;20554;-83
2022/06/03 00:22:16;;;;;;;11.88;9.68;;;;;;;-141.50;100.00;63355.56;5073437;28;20522;-82
2022/06/03 00:24:58;;;;;;;10.23;8.55;;;;;;;-141.50;100.00;63355.56;5061186;28;20082;-82
2022/06/03 00:27:28;;;;;;;10.85;8.23;;;;;;;-141.50;100.00;63355.56;5078476;28;20056;-84
2022/06/03 00:29:54;;;;;;;9.02;7.68;;;;;;;-141.50;100.00;63355.56;5056527;28;20483;-83
2022/06/03 00:32:27;;;;;;;10.80;7.53;;;;;;;-141.50;100.00;63355.56;5055362;28;20498;-82
2022/06/03 00:35:27;;;;;;;7.40;6.40;;;;;;;-141.50;100.00;63355.56;5073846;28;20136;-83
2022/06/03 00:38:14;;;;;;;7.80;6.63;;;;;;;-141.50;100.00;63355.56;5072941;28;20579;-83
2022/06/03 00:40:53;;;;;;;9.63;8.05;;;;;;;-141.50;100.00;63355.56;5071302;28;20084;-83
2022/06/03 00:43:34;;;;;;;9.68;8.27;;;;;;;-141.50;100.00;63355.56;5074016;28;20090;-82
2022/06/03 00:46:35;;;;;;;8.48;7.22;;;;;;;-141.50;100.00;63355.56;5058360;28;20209;-82
2022/06/03 00:49:20;;;;;;;10.43;7.18;;;;;;;-141.50;100.00;63355.56;5086269;28;20060;-83
2022/06/03 00:51:49;;;;;;;12.88;7.43;;;;;;;-141.50;100.00;63355.56;5073968;28;20430;-84
2022/06/03 00:54:22;;;;;;;11.88;7.82;;;;;;;-141.50;100.00;63355.56;5054508;28;20044;-83
2022/06/03 00:56:51;;;;;;;9.30;7.68;;;;;;;-141.50;100.00;63355.56;5053938;28;20114;-81
2022/06/03 00:59:24;;;;;;;8.40;7.50;;;;;;;-141.50;100.00;63355.56;5054492;28;20422;-82
2022/06/03 01:02:10;;;;;;;11.82;8.43;;;;;;;-141.50;100.00;63355.56;5071972;28;20140;-81
2022/06/03 01:05:07;;;;;;;9.95;7.93;;;;;;;-141.50;100.00;63355.56;5053076;28;20135;-82
2022/06/03 01:07:48;;;;;;;12.57;6.80;;;;;;;-141.50;100.00;63355.56;5072355;28;20080;-82
2022/06/03 01:10:40;;;;;;;7.32;6.43;;;;;;;-141.50;100.00;63355.56;5055947;28;20052;-83
2022/06/03 01:13:12;;;;;;;10.02;7.00;;;;;;;-141.50;100.00;63355.56;5071656;28;20084;-83
2022/06/03 01:16:02;;;;;;;8.43;7.18;;;;;;;-141.50;100.00;63355.56;5053416;28;20079;-83
2022/06/03 01:18:47;;;;;;;10.05;8.48;;;;;;;-141.50;100.00;63355.56;5017025;28;20135;-82
2022/06/03 01:21:28;;;;;;;11.15;8.90;;;;;;;-141.50;100.00;63355.56;5070953;28;20518;-83
2022/06/03 01:24:11;;;;;;;15.50;10.18;;;;;;;-141.50;100.00;63355.56;5071381;28;20072;-82
2022/06/03 01:27:15;;;;;;;12.68;9.48;;;;;;;-141.50;100.00;63355.56;5072529;28;20094;-80
2022/06/03 01:30:26;;;;;;;11.10;8.98;;;;;;;-141.50;100.00;63355.56;5054822;28;20208;-82
2022/06/03 01:33:26;;;;;;;9.32;8.32;;;;;;;-141.50;100.00;63355.56;5051366;28;20094;-83
2022/06/03 01:36:15;;;;;;;11.43;9.60;;;;;;;-141.50;100.00;63355.56;5088791;28;20045;-83
2022/06/03 01:39:24;;;;;;;10.23;8.02;;;;;;;-141.50;100.00;63355.56;5075272;28;20197;-84
2022/06/03 01:42:14;;;;;;;10.55;7.85;;;;;;;-141.50;100.00;63355.56;5072376;28;20067;-83
2022/06/03 01:44:59;;;;;;;10.85;8.18;;;;;;;-141.50;100.00;63355.56;5052001;28;20072;-83
2022/06/03 01:47:43;;;;;;;9.10;7.50;;;;;;;-141.50;100.00;63355.56;5070656;28;20099;-83
2022/06/03 01:50:25;;;;;;;10.48;7.20;;;;;;;-141.50;100.00;63355.56;5058276;28;20052;-84
2022/06/03 01:53:29;;;;;;;7.75;6.80;;;;;;;-141.50;100.00;63355.56;5071673;28;20132;-84
2022/06/03 01:56:33;;;;;;;11.82;7.55;;;;;;;-141.50;100.00;63355.56;5072339;28;20151;-84
2022/06/03 01:59:29;;;;;;;9.45;7.90;;;;;;;-141.50;100.00;63355.56;5073268;28;20080;-81
2022/06/03 02:02:22;;;;;;;9.60;8.35;;;;;;;-141.50;100.00;63355.56;5025772;28;20566;-85
2022/06/03 02:05:04;;;;;;;14.13;7.82;;;;;;;-141.50;100.00;63355.56;5072180;28;20101;-83
2022/06/03 02:07:43;;;;;;;9.05;7.82;;;;;;;-141.50;100.00;63355.56;5071582;28;20105;-84
2022/06/03 02:10:37;;;;;;;8.55;7.20;;;;;;;-141.50;100.00;63355.56;5070484;28;20103;-83
2022/06/03 02:13:10;;;;;;;8.00;6.80;;;;;;;-141.50;100.00;63355.56;5051912;28;20087;-82
2022/06/03 02:16:16;;;;;;;10.50;7.28;;;;;;;-141.50;100.00;63355.56;5052109;28;20113;-82
2022/06/03 02:18:58;;;;;;;8.98;7.80;;;;;;;-141.50;100.00;63355.56;5073866;28;20052;-82
2022/06/03 02:21:31;;;;;;;9.52;7.72;;;;;;;-141.50;100.00;63355.56;5066443;28;20495;-82
2022/06/03 02:24:24;;;;;;;9.80;8.40;;;;;;;-141.50;100.00;63355.56;5082809;28;20158;-82
2022/06/03 02:26:51;;;;;;;11.57;7.97;;;;;;;-141.50;100.00;63355.56;5093827;28;20091;-84
2022/06/03 02:32:29;;;;;;;10.38;7.65;;;;;;;-141.50;100.00;63355.56;5092482;28;20044;-82
2022/06/03 02:35:20;;;;;;;10.13;7.68;;;;;;;-141.50;100.00;63355.56;5092331;28;20047;-81
2022/06/03 02:38:05;;;;;;;10.23;7.07;;;;;;;-141.50;100.00;63355.56;5077233;28;20452;-83
2022/06/03 02:40:42;;;;;;;9.73;6.68;;;;;;;-141.50;100.00;63355.56;5073927;28;20052;-83
2022/06/03 02:43:43;;;;;;;8.30;7.10;;;;;;;-141.50;100.00;63355.56;5056142;28;20048;-83
2022/06/03 02:46:28;;;;;;;9.02;7.15;;;;;;;-141.50;100.00;63355.56;5055798;28;20422;-82
2022/06/03 02:49:14;;;;;;;8.73;7.45;;;;;;;-141.50;100.00;63355.56;5056081;28;20076;-83
2022/06/03 02:51:59;;;;;;;9.15;8.18;;;;;;;-141.50;100.00;63355.56;5074859;28;20128;-83
2022/06/03 02:54:34;;;;;;;9.32;7.85;;;;;;;-141.50;100.00;63355.56;5060142;28;20076;-83
2022/06/03 02:57:31;;;;;;;9.48;7.60;;;;;;;-141.50;100.00;63355.56;5054176;28;20144;-83
2022/06/03 03:00:18;;;;;;;8.52;7.63;;;;;;;-141.50;100.00;63355.56;5071523;28;20123;-84
2022/06/03 03:03:03;;;;;;;9.55;7.13;;;;;;;-141.50;100.00;63355.56;5070543;28;20551;-83
2022/06/03 03:05:37;;;;;;;11.82;7.55;;;;;;;-141.50;100.00;63355.56;5070358;28;20076;-81
2022/06/03 03:08:26;;;;;;;11.27;7.10;;;;;;;-141.50;100.00;63355.56;5069491;28;20117;-83
2022/06/03 03:11:13;;;;;;;8.27;6.72;;;;;;;-141.50;100.00;63355.56;5069968;28;20055;-82
2022/06/03 03:14:14;;;;;;;7.65;6.60;;;;;;;-141.50;100.00;63355.56;5071143;28;20124;-83
2022/06/03 03:17:14;;;;;;;8.00;6.65;;;;;;;-141.50;100.00;63355.56;5061227;28;20058;-83
2022/06/03 03:20:04;;;;;;;7.47;6.38;;;;;;;-141.50;100.00;63355.56;5056907;28;20056;-83
2022/06/03 03:22:44;;;;;;;9.27;6.50;;;;;;;-141.50;100.00;63355.56;5071597;28;20052;-83
2022/06/03 03:25:36;;;;;;;8.65;6.80;;;;;;;-141.50;100.00;63355.56;5074776;28;20548;-82
2022/06/03 03:28:02;;;;;;;7.93;6.85;;;;;;;-141.50;100.00;63355.56;5074369;28;20044;-83
2022/06/03 03:30:57;;;;;;;9.23;7.05;;;;;;;-141.50;100.00;63355.56;5074816;28;20404;-83
2022/06/03 03:33:55;;;;;;;8.25;6.55;;;;;;;-141.50;100.00;63355.56;5073712;28;20056;-83
2022/06/03 03:36:46;;;;;;;11.55;6.60;;;;;;;-141.50;100.00;63355.56;5074668;28;20534;-82
2022/06/03 03:39:43;;;;;;;9.35;6.68;;;;;;;-141.50;100.00;63355.56;5056428;28;20118;-82
2022/06/03 03:42:57;;;;;;;10.90;7.10;;;;;;;-141.50;100.00;63355.56;5058057;28;20145;-83
2022/06/03 03:45:27;;;;;;;8.65;7.72;;;;;;;-141.50;100.00;63355.56;5064469;28;20072;-84
2022/06/03 03:48:15;;;;;;;8.98;7.65;;;;;;;-141.50;100.00;63355.56;5057555;28;20076;-83
2022/06/03 03:50:44;;;;;;;11.25;7.97;;;;;;;-141.50;100.00;63355.56;5081468;28;20053;-83
2022/06/03 03:53:42;;;;;;;11.93;7.55;;;;;;;-141.50;100.00;63355.56;5069653;28;20091;-84
2022/06/03 03:56:45;;;;;;;10.20;8.02;;;;;;;-141.50;100.00;63355.56;5056452;28;20056;-84
2022/06/03 03:59:22;;;;;;;11.77;9.18;;;;;;;-141.50;100.00;63355.56;5058032;28;20063;-83
2022/06/03 04:02:13;;;;;;;10.13;8.20;;;;;;;-141.50;100.00;63355.56;5057012;28;20067;-83
2022/06/03 04:05:11;;;;;;;9.10;8.15;;;;;;;-141.50;100.00;63355.56;5054561;28;20049;-81
2022/06/03 04:07:56;;;;;;;9.23;8.23;;;;;;;-141.50;100.00;63355.56;5067642;28;20080;-80
2022/06/03 04:10:41;;;;;;;13.20;8.50;;;;;;;-141.50;100.00;63355.56;5055382;28;20045;-81
2022/06/03 04:13:19;;;;;;;9.68;7.85;;;;;;;-141.50;100.00;63355.56;5055796;28;20067;-81
2022/06/03 04:16:23;;;;;;;12.52;8.10;;;;;;;-141.50;100.00;63355.56;5073307;28;20045;-81
2022/06/03 04:19:10;;;;;;;11.65;8.20;;;;;;;-141.50;100.00;63355.56;5073352;28;20048;-83
2022/06/03 04:21:42;;;;;;;10.32;7.80;;;;;;;-141.50;100.00;63355.56;5074156;28;20426;-83
2022/06/03 04:24:15;;;;;;;12.48;8.10;;;;;;;-141.50;100.00;63355.56;5073970;28;20072;-84
2022/06/03 04:27:27;;;;;;;8.23;6.78;;;;;;;-141.50;100.00;63355.56;5063763;28;20083;-83
2022/06/03 04:30:32;;;;;;;13.50;7.53;;;;;;;-141.50;100.00;63355.56;5072866;28;20060;-85
2022/06/03 04:33:23;;;;;;;8.93;7.15;;;;;;;-141.50;100.00;63355.56;5019385;28;20109;-84
2022/06/03 04:36:27;;;;;;;9.75;7.18;;;;;;;-141.50;100.00;63355.56;5056168;28;20068;-83
2022/06/03 04:39:22;;;;;;;8.02;6.20;;;;;;;-141.50;100.00;63355.56;5073611;28;20079;-84
2022/06/03 04:42:42;;;;;;;9.88;6.75;;;;;;;-141.50;100.00;63355.56;5073745;28;20076;-84
2022/06/03 04:45:12;;;;;;;9.27;6.30;;;;;;;-141.50;100.00;63355.56;4974827;28;20050;-83
2022/06/03 04:48:00;;;;;;;8.60;6.90;;;;;;;-141.50;100.00;63355.56;4974999;28;20469;-84
2022/06/03 04:50:51;;;;;;;7.55;6.10;;;;;;;-141.50;100.00;63355.56;5043967;28;20102;-83
2022/06/03 04:54:03;;;;;;;7.88;5.63;;;;;;;-141.50;100.00;63355.56;5055055;28;20059;-83
2022/06/03 04:57:01;;;;;;;9.88;5.97;;;;;;;-141.50;100.00;63355.56;5055531;28;20163;-82
2022/06/03 05:00:02;;;;;;;11.05;5.70;;;;;;;-141.50;100.00;63355.56;5054826;28;20049;-84
2022/06/03 05:02:59;;;;;;;5.60;5.00;;;;;;;-141.50;100.00;63355.56;5062672;28;20517;-83
2022/06/03 05:05:38;;;;;;;6.95;5.00;;;;;;;-141.50;100.00;63355.56;5057611;28;20049;-83
2022/06/03 05:08:29;;;;;;;7.28;4.63;;;;;;;-141.50;100.00;63355.56;5070093;28;20060;-83
2022/06/03 05:11:33;;;;;;;7.15;4.40;;;;;;;-141.50;100.00;63355.56;5070299;28;20392;-81
2022/06/03 05:14:43;;;;;;;5.22;3.70;;;;;;;-141.50;100.00;63355.56;5066809;28;20143;-83
2022/06/03 05:17:41;;;;;;;4.75;3.28;;;;;;;-141.50;100.00;63355.56;5028097;28;20049;-83
2022/06/03 05:20:28;;;;;;;5.57;2.75;;;;;;;-141.50;100.00;63355.56;5071232;28;20050;-80
2022/06/03 05:23:13;;;;;;;6.47;2.80;;;;;;;-141.50;100.00;63355.56;5069027;28;20083;-82
2022/06/03 05:25:42;;;;;;;3.72;2.38;;;;;;;-141.50;100.00;63355.56;5069279;28;20105;-80
2022/06/03 05:28:45;;;;;;;4.57;2.15;;;;;;;-141.50;100.00;63355.56;5068602;28;20052;-83
2022/06/03 05:31:31;;;;;;;3.35;1.95;;;;;;;-141.50;100.00;63355.56;5071020;28;20044;-82
2022/06/03 05:34:39;;;;;;;6.00;2.23;;;;;;;-141.50;100.00;63355.56;5072489;28;20106;-80
2022/06/03 05:37:32;;;;;;;8.80;2.10;;;;;;;-141.50;100.00;63355.56;5066147;28;20083;-80
2022/06/03 05:40:11;;;;;;;4.63;2.53;;;;;;;-141.50;100.00;63355.56;5061750;28;20048;-83
2022/06/03 05:43:11;;;;;;;3.67;2.22;;;;;;;-141.50;100.00;63355.56;5054426;28;20120;-83
2022/06/03 05:46:04;;;;;;;3.50;2.28;;;;;;;-141.50;100.00;63355.56;5069343;28;20133;-81
2022/06/03 05:48:48;;;;;;;6.45;2.35;;;;;;;-141.50;100.00;63355.56;5041742;28;20655;-80
2022/06/03 05:51:37;;;;;;;3.83;2.33;;;;;;;-141.50;100.00;63355.56;5048067;28;20094;-80
2022/06/03 05:54:18;;;;;;;5.63;2.60;;;;;;;-141.50;100.00;63355.56;5051072;28;20091;-81
2022/06/03 05:56:51;;;;;;;7.97;3.10;;;;;;;-141.50;100.00;63355.56;5069800;28;20605;-83
2022/06/03 05:59:45;;;;;;;4.78;2.03;;;;;;;-141.50;100.00;63355.56;5068907;28;20071;-82
2022/06/03 06:02:22;;;;;;;4.90;2.13;;;;;;;-141.50;100.00;63355.56;5072082;28;20093;-84
2022/06/03 06:05:13;;;;;;;3.28;2.28;;;;;;;-141.50;100.00;63355.56;5065085;28;20103;-81
2022/06/03 06:08:13;;;;;;;3.92;2.00;;;;;;;-141.50;100.00;63355.56;5030767;28;20470;-82
2022/06/03 06:11:03;;;;;;;6.32;2.78;;;;;;;-141.50;100.00;63355.56;5093278;28;20177;-80
2022/06/03 06:13:42;;;;;;;4.63;2.22;;;;;;;-141.50;100.00;63355.56;5080098;28;20061;-84
2022/06/03 06:16:14;;;;;;;6.20;1.92;;;;;;;-141.50;100.00;63355.56;5073182;28;20611;-82
2022/06/03 06:18:53;;;;;;;3.42;1.95;;;;;;;-141.50;100.00;63355.56;5074006;28;20048;-81
2022/06/03 06:21:33;;;;;;;3.00;1.85;;;;;;;-141.50;100.00;63355.56;5073262;28;20056;-84
2022/06/03 06:24:29;;;;;;;4.20;1.70;;;;;;;-141.50;100.00;63355.56;5054636;28;20044;-82
2022/06/03 06:27:18;;;;;;;2.10;1.60;;;;;;;-141.50;100.00;63355.56;5039567;28;20735;-82
2022/06/03 06:29:50;;;;;;;2.08;1.13;;;;;;;-141.50;100.00;63355.56;5052905;28;20099;-82
2022/06/03 06:32:56;;;;;;;3.80;1.20;;;;;;;-141.50;100.00;63355.56;5071268;28;20056;-81
2022/06/03 06:35:54;;;;;;;2.55;1.20;;;;;;;-141.50;100.00;63355.56;5069572;28;20538;-81
2022/06/03 06:38:47;;;;;;;5.38;1.23;;;;;;;-141.50;100.00;63355.56;5052324;28;20061;-82
2022/06/03 06:41:27;;;;;;;4.82;1.25;;;;;;;-141.50;100.00;63355.56;5070663;28;20076;-83
2022/06/03 06:44:08;;;;;;;3.85;1.30;;;;;;;-141.50;100.00;63355.56;5071562;28;20056;-82
2022/06/03 06:46:57;;;;;;;2.78;1.40;;;;;;;-141.50;100.00;63355.56;5053933;28;20131;-82
2022/06/03 06:49:35;;;;;;;4.25;1.17;;;;;;;-141.50;100.00;63355.56;5072419;28;20487;-82
2022/06/03 06:52:07;;;;;;;2.45;1.30;;;;;;;-141.50;100.00;63355.56;5075603;28;20048;-82
2022/06/03 06:54:52;;;;;;;5.28;1.38;;;;;;;-141.50;100.00;63355.56;5092507;28;20078;-80
2022/06/03 06:57:31;;;;;;;3.38;1.13;;;;;;;-141.50;100.00;63355.56;5066242;28;20048;-82
2022/06/03 07:00:26;;;;;;;3.05;1.50;;;;;;;-141.50;100.00;63355.56;5061338;28;20142;-83
2022/06/03 07:03:05;;;;;;;5.95;1.35;;;;;;;-141.50;100.00;63355.56;5046118;28;20049;-83
2022/06/03 07:05:31;;;;;;;7.65;1.60;;;;;;;-141.50;100.00;63355.56;5052233;28;20060;-83
2022/06/03 07:08:21;;;;;;;3.72;1.15;;;;;;;-141.50;100.00;63355.56;5052831;28;20080;-84
2022/06/03 07:11:06;;;;;;;6.45;1.35;;;;;;;-141.50;100.00;63355.56;5078117;28;20033;-80
2022/06/03 07:13:51;;;;;;;2.85;1.42;;;;;;;-141.50;100.00;63355.56;5083743;28;20058;-80
2022/06/03 07:19:48;;;;;;;3.85;1.38;;;;;;;-141.50;100.00;63355.56;5081199;28;20049;-82
2022/06/03 07:22:38;;;;;;;3.15;1.17;;;;;;;-141.50;100.00;63355.56;5096582;28;20048;-80
2022/06/03 07:25:15;;;;;;;2.92;1.20;;;;;;;-141.50;100.00;63355.56;5088759;28;20082;-81
2022/06/03 07:27:50;;;;;;;8.80;2.78;;;;;;;-141.50;100.00;63355.56;5065576;28;20052;-81
2022/06/03 07:30:40;;;;;;;4.28;1.45;;;;;;;-141.50;100.00;63355.56;5081516;28;20078;-81
2022/06/03 07:33:21;;;;;;;3.70;1.40;;;;;;;-141.50;100.00;63355.56;5082084;28;20502;-81
2022/06/03 07:36:13;;;;;;;5.30;1.20;;;;;;;-141.50;100.00;63355.56;5079538;28;20049;-81
2022/06/03 07:38:48;;;;;;;5.32;1.40;;;;;;;-141.50;100.00;63355.56;5051713;28;20425;-82
2022/06/03 07:41:47;;;;;;;3.93;1.37;;;;;;;-141.50;100.00;63355.56;5082188;28;20040;-81
2022/06/03 07:44:22;;;;;;;8.88;1.30;;;;;;;-141.50;100.00;63355.56;5080553;28;20289;-81
2022/06/03 07:47:00;;;;;;;8.48;1.20;;;;;;;-141.50;100.00;63355.56;5078568;28;20079;-82
2022/06/03 07:49:31;;;;;;;3.08;1.50;;;;;;;-141.50;100.00;63355.56;5076764;28;20060;-81
2022/06/03 07:52:14;;;;;;;4.82;1.08;;;;;;;-141.50;100.00;63355.56;5081233;28;20048;-82
2022/06/03 07:54:50;;;;;;;2.35;1.13;;;;;;;-141.50;100.00;63355.56;5072221;28;20206;-83
2022/06/03 07:57:22;;;;;;;5.22;1.20;;;;;;;-141.50;100.00;63355.56;5078309;28;20479;-82
2022/06/03 07:59:50;;;;;;;1.90;1.20;;;;;;;-141.50;100.00;63355.56;5074150;28;20577;-81
2022/06/03 08:02:19;;;;;;;2.28;1.27;;;;;;;-141.50;100.00;63355.56;5073757;28;20100;-82
2022/06/03 08:04:59;;;;;;;3.88;1.23;;;;;;;-141.50;100.00;63355.56;5061501;28;20048;-82
2022/06/03 08:13:09;;;;;;;4.57;1.23;;;;;;;-141.50;100.00;63355.56;5094630;28;20044;-81
2022/06/03 08:15:39;;;;;;;4.57;1.60;;;;;;;-141.50;100.00;63355.56;5093545;28;20056;-83
2022/06/03 08:18:13;;;;;;;4.90;1.60;;;;;;;-141.50;100.00;63355.56;5093058;28;20055;-80
2022/06/03 08:20:51;;;;;;;2.50;1.25;;;;;;;-141.50;100.00;63355.56;5093429;28;20045;-80
2022/06/03 08:23:19;;;;;;;2.78;1.30;;;;;;;-141.50;100.00;63355.56;5093253;28;20040;-81
2022/06/03 08:25:50;;;;;;;2.30;1.38;;;;;;;-141.50;100.00;63355.56;5058707;28;20056;-81
2022/06/03 08:28:21;;;;;;;3.33;1.25;;;;;;;-141.50;100.00;63355.56;5076422;28;20045;-83
2022/06/03 08:30:50;;;;;;;4.28;1.30;;;;;;;-141.50;100.00;63355.56;5078223;28;20084;-83
2022/06/03 08:33:25;;;;;;;6.15;1.25;;;;;;;-141.50;100.00;63355.56;5074656;28;20052;-82
2022/06/03 08:35:52;;;;;;;2.95;1.40;;;;;;;-141.50;100.00;63355.56;5073741;28;20129;-84
2022/06/03 08:38:34;;;;;;;5.10;1.60;;;;;;;-141.50;100.00;63355.56;5078706;28;20051;-82
2022/06/03 08:41:06;;;;;;;4.50;1.48;;;;;;;-141.50;100.00;63355.56;5059620;28;20057;-84
2022/06/03 08:44:07;;;;;;;9.45;1.52;;;;;;;-141.50;100.00;63355.56;5075907;28;20075;-81
2022/06/03 08:46:51;;;;;;;2.92;1.50;;;;;;;-141.50;100.00;63355.56;5076057;28;20045;-83
2022/06/03 08:49:23;;;;;;;6.78;1.55;;;;;;;-141.50;100.00;63355.56;5075393;28;20049;-81
2022/06/03 08:51:56;;;;;;;3.65;1.55;;;;;;;-141.50;100.00;63355.56;5075177;28;20044;-82
2022/06/03 08:54:48;;;;;;;2.38;1.23;;;;;;;-141.50;100.00;63355.56;5072613;28;20114;-81
2022/06/03 08:57:39;;;;;;;2.25;1.30;;;;;;;-141.50;100.00;63355.56;5054429;28;20075;-80
2022/06/03 09:00:09;;;;;;;8.63;1.50;;;;;;;-141.50;100.00;63355.56;5071970;28;20399;-78
2022/06/03 09:02:54;;;;;;;6.65;1.50;;;;;;;-141.50;100.00;63355.56;5074686;28;20048;-82
2022/06/03 09:05:26;;;;;;;4.17;1.40;;;;;;;-141.50;100.00;63355.56;5056310;28;20120;-83
2022/06/03 09:08:35;;;;;;;4.75;1.35;;;;;;;-141.50;100.00;63355.56;5060779;28;20103;-82
2022/06/03 09:11:18;;;;;;;4.93;1.27;;;;;;;-141.50;100.00;63355.56;5028328;28;20150;-80
2022/06/03 09:13:56;;;;;;;6.57;1.27;;;;;;;-141.50;100.00;63355.56;5054729;28;20049;-82
2022/06/03 09:16:26;;;;;;;6.72;1.40;;;;;;;-141.50;100.00;63355.56;5073430;28;20127;-82
2022/06/03 09:19:05;;;;;;;4.53;1.38;;;;;;;-141.50;100.00;63355.56;5073195;28;20049;-83
2022/06/03 09:21:35;;;;;;;2.42;1.27;;;;;;;-141.50;100.00;63355.56;5060054;28;20053;-82
2022/06/03 09:24:20;;;;;;;4.70;1.35;;;;;;;-141.50;100.00;63355.56;5073505;28;20102;-82
2022/06/03 09:26:57;;;;;;;1.85;1.10;;;;;;;-141.50;100.00;63355.56;5077957;28;20044;-83
2022/06/03 09:29:25;;;;;;;1.65;1.00;;;;;;;-141.50;100.00;63355.56;5081046;28;20083;-83
2022/06/03 09:32:03;;;;;;;2.50;1.27;;;;;;;-141.50;100.00;63355.56;5075134;28;20106;-84
2022/06/03 09:34:42;;;;;;;7.18;1.40;;;;;;;-141.50;100.00;63355.56;5075069;28;20067;-83
2022/06/03 09:37:20;;;;;;;2.42;1.30;;;;;;;-141.50;100.00;63355.56;5076144;28;20091;-83
2022/06/03 09:39:49;;;;;;;2.25;1.20;;;;;;;-141.50;100.00;63355.56;5073193;28;20048;-80
2022/06/03 09:42:18;;;;;;;2.47;1.40;;;;;;;-141.50;100.00;63355.56;5074862;28;20053;-81
2022/06/03 09:44:47;;;;;;;6.95;1.30;;;;;;;-141.50;100.00;63355.56;5089109;28;20079;-79
2022/06/03 09:47:18;;;;;;;5.75;1.20;;;;;;;-141.50;100.00;63355.56;5090899;28;20045;-83
2022/06/03 09:49:47;;;;;;;3.47;1.10;;;;;;;-141.50;100.00;63355.56;5072383;28;20444;-82
2022/06/03 09:52:19;;;;;;;2.60;1.20;;;;;;;-141.50;100.00;63355.56;5071651;28;20063;-82
2022/06/03 09:54:47;;;;;;;1.92;1.10;;;;;;;-141.50;100.00;63355.56;5054930;28;20048;-83
2022/06/03 09:57:21;;;;;;;5.07;1.40;;;;;;;-141.50;100.00;63355.56;5072625;28;20131;-81
2022/06/03 10:00:16;;;;;;;3.58;1.10;;;;;;;-141.50;100.00;63355.56;5055027;28;20077;-82
2022/06/03 10:02:43;;;;;;;3.30;1.00;;;;;;;-141.50;100.00;63355.56;5065102;28;20103;-83
2022/06/03 10:05:16;;;;;;;2.00;1.10;;;;;;;-141.50;100.00;63355.56;5059297;28;20044;-84
2022/06/03 10:07:47;;;;;;;1.95;1.25;;;;;;;-141.50;100.00;63355.56;5057387;28;20056;-83
2022/06/03 10:13:03;;;;;;;3.92;1.40;;;;;;;-141.50;100.00;63355.56;5080666;28;20057;-82
2022/06/03 10:15:42;;;;;;;4.00;1.05;;;;;;;-141.50;100.00;63355.56;5076168;28;20052;-84
2022/06/03 10:18:19;;;;;;;4.70;1.30;;;;;;;-141.50;100.00;63355.56;5080744;28;20048;-84
2022/06/03 10:20:50;;;;;;;2.58;1.15;;;;;;;-141.50;100.00;63355.56;5065921;28;20580;-83
2022/06/03 10:23:23;;;;;;;2.05;1.30;;;;;;;-141.50;100.00;63355.56;5087812;28;20145;-82
2022/06/03 10:26:21;;;;;;;1.98;1.05;;;;;;;-141.50;100.00;63355.56;5076496;28;20087;-82
2022/06/03 10:28:50;;;;;;;4.20;1.55;;;;;;;-141.50;100.00;63355.56;5051782;28;20574;-82
2022/06/03 10:31:20;;;;;;;3.90;1.20;;;;;;;-141.50;100.00;63355.56;5070781;28;20044;-85
2022/06/03 10:33:53;;;;;;;2.20;1.20;;;;;;;-141.50;100.00;63355.56;5070290;28;20052;-83
2022/06/03 10:36:24;;;;;;;1.73;1.23;;;;;;;-141.50;100.00;63355.56;5052406;28;20083;-83
2022/06/03 10:38:51;;;;;;;2.13;1.33;;;;;;;-141.50;100.00;63355.56;5070824;28;20474;-81
2022/06/03 10:41:20;;;;;;;2.38;1.20;;;;;;;-141.50;100.00;63355.56;5080829;28;20040;-82
2022/06/03 10:43:48;;;;;;;2.28;1.20;;;;;;;-141.50;100.00;63355.56;5072584;28;20048;-82
2022/06/03 10:46:17;;;;;;;3.85;1.25;;;;;;;-141.50;100.00;63355.56;5075352;28;20095;-82
2022/06/03 10:48:45;;;;;;;4.15;1.33;;;;;;;-141.50;100.00;63355.56;5093166;28;20047;-81
2022/06/03 10:51:12;;;;;;;1.70;1.23;;;;;;;-141.50;100.00;63355.56;5075603;28;20048;-80
2022/06/03 11:02:00;;;;;;;1.88;1.20;;;;;;;-141.50;100.00;63355.56;5080819;28;20044;-80
2022/06/03 11:04:33;;;;;;;2.27;1.20;;;;;;;-141.50;100.00;63355.56;5076242;28;20134;-82
2022/06/03 11:07:02;;;;;;;2.10;1.17;;;;;;;-141.50;100.00;63355.56;5078641;28;20122;-83
2022/06/03 11:09:31;;;;;;;2.67;1.30;;;;;;;-141.50;100.00;63355.56;5060729;28;20078;-80
2022/06/03 11:12:02;;;;;;;2.50;1.25;;;;;;;-141.50;100.00;63355.56;5054494;28;20045;-81
2022/06/03 11:14:41;;;;;;;4.82;1.10;;;;;;;-141.50;100.00;63355.56;5054741;28;20052;-82
2022/06/03 11:17:33;;;;;;;1.50;1.30;;;;;;;-141.50;100.00;63355.56;5085054;28;20059;-83
2022/06/03 11:20:00;;;;;;;1.42;1.20;;;;;;;-141.50;100.00;63355.56;5092554;28;20059;-80
2022/06/03 11:22:39;;;;;;;1.77;1.23;;;;;;;-141.50;100.00;63355.56;5091924;28;20040;-81
2022/06/03 11:25:26;;;;;;;3.20;1.02;;;;;;;-141.50;100.00;63355.56;5092165;28;20045;-79
2022/06/03 11:28:29;;;;;;;7.32;1.20;;;;;;;-141.50;100.00;63355.56;5093216;28;20049;-82
2022/06/03 11:31:13;;;;;;;1.30;1.20;;;;;;;-141.50;100.00;63355.56;5080054;28;20040;-85
2022/06/03 11:33:50;;;;;;;1.50;1.20;;;;;;;-141.50;100.00;63355.56;5059433;28;20056;-82
2022/06/03 11:36:27;;;;;;;5.25;1.20;;;;;;;-141.50;100.00;63355.56;5056901;28;20052;-84
2022/06/03 11:38:58;;;;;;;2.65;1.15;;;;;;;-141.50;100.00;63355.56;5071510;28;20045;-82
2022/06/03 11:41:30;;;;;;;2.28;1.20;;;;;;;-141.50;100.00;63355.56;5077246;28;20048;-82
2022/06/03 11:44:13;;;;;;;4.07;1.30;;;;;;;-141.50;100.00;63355.56;5078687;28;20060;-84
2022/06/03 11:46:47;;;;;;;2.45;1.40;;;;;;;-141.50;100.00;63355.56;5085188;28;20052;-84
2022/06/03 11:49:18;;;;;;;4.65;1.52;;;;;;;-141.50;100.00;63355.56;5067391;28;20423;-84
2022/06/03 11:51:48;;;;;;;3.45;1.30;;;;;;;-141.50;100.00;63355.56;5080730;28;20052;-83
2022/06/03 11:54:18;;;;;;;3.45;1.30;;;;;;;-141.50;100.00;63355.56;5077883;28;20078;-83
2022/06/03 11:56:46;;;;;;;1.65;1.08;;;;;;;-141.50;100.00;63355.56;5078114;28;20048;-84
2022/06/03 11:59:32;;;;;;;1.70;1.20;;;;;;;-141.50;100.00;63355.56;5076955;28;20063;-82
2022/06/03 12:02:13;;;;;;;4.80;1.30;;;;;;;-141.50;100.00;63355.56;5074493;28;20052;-82
2022/06/03 12:05:08;;;;;;;2.13;1.30;;;;;;;-141.50;100.00;63355.56;5073028;28;20139;-81
2022/06/03 12:07:53;;;;;;;2.40;1.43;;;;;;;-141.50;100.00;63355.56;5058662;28;20070;-81
2022/06/03 12:10:40;;;;;;;5.25;1.50;;;;;;;-141.50;100.00;63355.56;5077281;28;20037;-83
2022/06/03 12:13:16;;;;;;;1.80;1.30;;;;;;;-141.50;100.00;63355.56;5073328;28;20044;-82
2022/06/03 12:15:58;;;;;;;1.40;1.17;;;;;;;-141.50;100.00;63355.56;5089704;28;20048;-81
2022/06/03 12:18:37;;;;;;;1.98;1.08;;;;;;;-141.50;100.00;63355.56;5087858;28;20045;-83
2022/06/03 12:21:13;;;;;;;2.78;1.48;;;;;;;-141.50;100.00;63355.56;5074366;28;20384;-84
2022/06/03 12:23:41;;;;;;;2.88;1.40;;;;;;;-141.50;100.00;63355.56;5082288;28;20044;-81
2022/06/03 12:26:13;;;;;;;3.92;1.33;;;;;;;-141.50;100.00;63355.56;5085426;28;20132;-82
2022/06/03 12:28:45;;;;;;;5.88;1.60;;;;;;;-141.50;100.00;63355.56;5079665;28;20101;-82
2022/06/03 12:31:15;;;;;;;8.32;1.70;;;;;;;-141.50;100.00;63355.56;5079636;28;20079;-81
2022/06/03 12:34:01;;;;;;;7.20;1.58;;;;;;;-141.50;100.00;63355.56;5072202;28;20111;-81
2022/06/03 12:36:37;;;;;;;3.40;1.60;;;;;;;-141.50;100.00;63355.56;5073281;28;20084;-80
2022/06/03 12:39:05;;;;;;;5.13;1.60;;;;;;;-141.50;100.00;63355.56;5086343;28;20526;-80